sensor_id;sensor_type;location;lat;lon;timestamp;P1;durP1;ratioP1;P2;durP2;ratioP2
56567;SDS011;42456;49.956;20.004;2024-03-25T00:00:53;8.50;;;4.20;;
56567;SDS011;42456;49.956;20.004;2024-03-25T00:03:20;11.50;;;4.50;;
56567;SDS011;42456;49.956;20.004;2024-03-25T00:05:46;9.50;;;4.40;;
56567;SDS011;42456;49.956;20.004;2024-03-25T00:08:13;12.60;;;4.20;;
56567;SDS011;42456;49.956;20.004;2024-03-25T00:10:40;9.40;;;4.40;;
56567;SDS011;42456;49.956;20.004;2024-03-25T00:13:07;9.10;;;4.00;;
56567;SDS011;42456;49.956;20.004;2024-03-25T00:15:34;9.30;;;3.70;;
56567;SDS011;42456;49.956;20.004;2024-03-25T00:18:00;9.40;;;3.80;;
56567;SDS011;42456;49.956;20.004;2024-03-25T00:20:27;11.90;;;4.60;;
56567;SDS011;42456;49.956;20.004;2024-03-25T00:22:54;8.20;;;3.70;;
56567;SDS011;42456;49.956;20.004;2024-03-25T00:25:21;9.40;;;3.90;;
56567;SDS011;42456;49.956;20.004;2024-03-25T00:27:48;9.00;;;4.00;;
56567;SDS011;42456;49.956;20.004;2024-03-25T00:30:15;10.50;;;4.80;;
56567;SDS011;42456;49.956;20.004;2024-03-25T00:32:41;9.70;;;4.30;;
56567;SDS011;42456;49.956;20.004;2024-03-25T00:35:08;10.80;;;4.60;;
56567;SDS011;42456;49.956;20.004;2024-03-25T00:37:35;9.60;;;4.70;;
56567;SDS011;42456;49.956;20.004;2024-03-25T00:40:02;11.10;;;5.10;;
56567;SDS011;42456;49.956;20.004;2024-03-25T00:42:30;11.50;;;4.90;;
56567;SDS011;42456;49.956;20.004;2024-03-25T00:44:57;7.20;;;3.80;;
56567;SDS011;42456;49.956;20.004;2024-03-25T00:47:24;9.90;;;4.10;;
56567;SDS011;42456;49.956;20.004;2024-03-25T00:49:50;8.20;;;3.70;;
56567;SDS011;42456;49.956;20.004;2024-03-25T00:52:17;9.30;;;4.00;;
56567;SDS011;42456;49.956;20.004;2024-03-25T00:54:44;8.10;;;4.20;;
56567;SDS011;42456;49.956;20.004;2024-03-25T00:57:11;8.20;;;4.10;;
56567;SDS011;42456;49.956;20.004;2024-03-25T00:59:38;8.40;;;3.50;;
56567;SDS011;42456;49.956;20.004;2024-03-25T01:02:05;8.40;;;3.80;;
56567;SDS011;42456;49.956;20.004;2024-03-25T01:04:32;9.00;;;3.50;;
56567;SDS011;42456;49.956;20.004;2024-03-25T01:06:59;8.70;;;3.80;;
56567;SDS011;42456;49.956;20.004;2024-03-25T01:09:25;8.40;;;3.70;;
56567;SDS011;42456;49.956;20.004;2024-03-25T01:11:52;7.00;;;3.60;;
56567;SDS011;42456;49.956;20.004;2024-03-25T01:14:19;8.20;;;3.50;;
56567;SDS011;42456;49.956;20.004;2024-03-25T01:16:46;8.50;;;3.40;;
56567;SDS011;42456;49.956;20.004;2024-03-25T01:19:14;8.50;;;3.80;;
56567;SDS011;42456;49.956;20.004;2024-03-25T01:21:40;9.00;;;4.00;;
56567;SDS011;42456;49.956;20.004;2024-03-25T01:24:07;7.30;;;3.50;;
56567;SDS011;42456;49.956;20.004;2024-03-25T01:26:34;10.60;;;4.20;;
56567;SDS011;42456;49.956;20.004;2024-03-25T01:29:00;6.50;;;3.50;;
56567;SDS011;42456;49.956;20.004;2024-03-25T01:31:28;7.40;;;3.70;;
56567;SDS011;42456;49.956;20.004;2024-03-25T01:33:55;9.50;;;3.80;;
56567;SDS011;42456;49.956;20.004;2024-03-25T01:36:21;9.20;;;3.90;;
56567;SDS011;42456;49.956;20.004;2024-03-25T01:38:48;8.10;;;3.50;;
56567;SDS011;42456;49.956;20.004;2024-03-25T01:41:16;8.10;;;3.30;;
56567;SDS011;42456;49.956;20.004;2024-03-25T01:43:47;5.70;;;3.00;;
56567;SDS011;42456;49.956;20.004;2024-03-25T01:46:14;6.50;;;3.00;;
56567;SDS011;42456;49.956;20.004;2024-03-25T01:48:43;5.80;;;3.20;;
56567;SDS011;42456;49.956;20.004;2024-03-25T01:51:11;6.30;;;3.60;;
56567;SDS011;42456;49.956;20.004;2024-03-25T01:53:41;6.70;;;3.50;;
56567;SDS011;42456;49.956;20.004;2024-03-25T01:56:09;7.60;;;3.50;;
56567;SDS011;42456;49.956;20.004;2024-03-25T01:58:38;6.40;;;3.20;;
56567;SDS011;42456;49.956;20.004;2024-03-25T02:01:05;7.00;;;3.60;;
56567;SDS011;42456;49.956;20.004;2024-03-25T02:03:32;8.40;;;3.50;;
56567;SDS011;42456;49.956;20.004;2024-03-25T02:06:01;6.70;;;3.40;;
56567;SDS011;42456;49.956;20.004;2024-03-25T02:08:30;8.10;;;3.30;;
56567;SDS011;42456;49.956;20.004;2024-03-25T02:10:57;6.80;;;3.30;;
56567;SDS011;42456;49.956;20.004;2024-03-25T02:13:26;7.70;;;3.30;;
56567;SDS011;42456;49.956;20.004;2024-03-25T02:15:52;8.30;;;3.50;;
56567;SDS011;42456;49.956;20.004;2024-03-25T02:18:21;5.50;;;3.30;;
56567;SDS011;42456;49.956;20.004;2024-03-25T02:20:48;6.00;;;3.10;;
56567;SDS011;42456;49.956;20.004;2024-03-25T02:23:15;6.90;;;3.90;;
56567;SDS011;42456;49.956;20.004;2024-03-25T02:25:42;6.10;;;2.80;;
56567;SDS011;42456;49.956;20.004;2024-03-25T02:28:09;6.20;;;2.90;;
56567;SDS011;42456;49.956;20.004;2024-03-25T02:30:37;7.80;;;3.00;;
56567;SDS011;42456;49.956;20.004;2024-03-25T02:33:05;7.40;;;3.30;;
56567;SDS011;42456;49.956;20.004;2024-03-25T02:35:31;7.90;;;3.60;;
56567;SDS011;42456;49.956;20.004;2024-03-25T02:37:59;5.20;;;3.10;;
56567;SDS011;42456;49.956;20.004;2024-03-25T02:40:27;6.40;;;3.50;;
56567;SDS011;42456;49.956;20.004;2024-03-25T02:42:53;5.90;;;3.50;;
56567;SDS011;42456;49.956;20.004;2024-03-25T02:45:21;7.10;;;3.30;;
56567;SDS011;42456;49.956;20.004;2024-03-25T02:47:48;6.70;;;3.20;;
56567;SDS011;42456;49.956;20.004;2024-03-25T02:50:15;5.40;;;3.10;;
56567;SDS011;42456;49.956;20.004;2024-03-25T02:52:42;5.20;;;3.10;;
56567;SDS011;42456;49.956;20.004;2024-03-25T02:55:09;9.90;;;4.90;;
56567;SDS011;42456;49.956;20.004;2024-03-25T02:57:35;7.30;;;3.80;;
56567;SDS011;42456;49.956;20.004;2024-03-25T03:00:02;6.30;;;3.30;;
56567;SDS011;42456;49.956;20.004;2024-03-25T03:02:30;6.50;;;3.40;;
56567;SDS011;42456;49.956;20.004;2024-03-25T03:04:57;6.40;;;3.70;;
56567;SDS011;42456;49.956;20.004;2024-03-25T03:07:24;4.70;;;3.00;;
56567;SDS011;42456;49.956;20.004;2024-03-25T03:09:50;6.80;;;3.40;;
56567;SDS011;42456;49.956;20.004;2024-03-25T03:12:17;5.20;;;3.40;;
56567;SDS011;42456;49.956;20.004;2024-03-25T03:14:44;5.60;;;3.40;;
56567;SDS011;42456;49.956;20.004;2024-03-25T03:17:11;7.50;;;3.20;;
56567;SDS011;42456;49.956;20.004;2024-03-25T03:19:37;5.80;;;3.20;;
56567;SDS011;42456;49.956;20.004;2024-03-25T03:22:04;5.00;;;2.80;;
56567;SDS011;42456;49.956;20.004;2024-03-25T03:24:31;6.30;;;3.70;;
56567;SDS011;42456;49.956;20.004;2024-03-25T03:26:58;5.60;;;3.00;;
56567;SDS011;42456;49.956;20.004;2024-03-25T03:29:25;6.70;;;3.00;;
56567;SDS011;42456;49.956;20.004;2024-03-25T03:31:52;6.80;;;3.30;;
56567;SDS011;42456;49.956;20.004;2024-03-25T03:34:19;5.60;;;3.10;;
56567;SDS011;42456;49.956;20.004;2024-03-25T03:36:46;6.70;;;3.30;;
56567;SDS011;42456;49.956;20.004;2024-03-25T03:39:13;7.70;;;3.50;;
56567;SDS011;42456;49.956;20.004;2024-03-25T03:41:40;7.10;;;3.80;;
56567;SDS011;42456;49.956;20.004;2024-03-25T03:44:06;9.90;;;5.00;;
56567;SDS011;42456;49.956;20.004;2024-03-25T03:46:33;7.50;;;3.60;;
56567;SDS011;42456;49.956;20.004;2024-03-25T03:49:00;7.80;;;3.50;;
56567;SDS011;42456;49.956;20.004;2024-03-25T03:51:27;6.90;;;4.10;;
56567;SDS011;42456;49.956;20.004;2024-03-25T03:53:53;7.20;;;3.50;;
56567;SDS011;42456;49.956;20.004;2024-03-25T03:56:20;6.00;;;3.60;;
56567;SDS011;42456;49.956;20.004;2024-03-25T03:58:47;7.30;;;3.60;;
56567;SDS011;42456;49.956;20.004;2024-03-25T04:01:17;6.10;;;3.30;;
56567;SDS011;42456;49.956;20.004;2024-03-25T04:03:44;6.40;;;3.30;;
56567;SDS011;42456;49.956;20.004;2024-03-25T04:06:12;4.30;;;2.90;;
56567;SDS011;42456;49.956;20.004;2024-03-25T04:08:40;4.30;;;2.90;;
56567;SDS011;42456;49.956;20.004;2024-03-25T04:11:06;5.70;;;3.00;;
56567;SDS011;42456;49.956;20.004;2024-03-25T04:13:34;4.30;;;2.80;;
56567;SDS011;42456;49.956;20.004;2024-03-25T04:16:03;6.00;;;2.80;;
56567;SDS011;42456;49.956;20.004;2024-03-25T04:18:31;3.40;;;2.40;;
56567;SDS011;42456;49.956;20.004;2024-03-25T04:21:02;6.30;;;3.10;;
56567;SDS011;42456;49.956;20.004;2024-03-25T04:23:30;4.30;;;2.60;;
56567;SDS011;42456;49.956;20.004;2024-03-25T04:26:00;3.60;;;2.50;;
56567;SDS011;42456;49.956;20.004;2024-03-25T04:28:28;9.60;;;5.40;;
56567;SDS011;42456;49.956;20.004;2024-03-25T04:30:55;11.20;;;6.10;;
56567;SDS011;42456;49.956;20.004;2024-03-25T04:33:22;9.00;;;5.00;;
56567;SDS011;42456;49.956;20.004;2024-03-25T04:35:49;9.10;;;4.60;;
56567;SDS011;42456;49.956;20.004;2024-03-25T04:38:16;5.90;;;3.60;;
56567;SDS011;42456;49.956;20.004;2024-03-25T04:40:43;7.40;;;3.70;;
56567;SDS011;42456;49.956;20.004;2024-03-25T04:43:11;5.50;;;3.30;;
56567;SDS011;42456;49.956;20.004;2024-03-25T04:45:37;5.60;;;3.60;;
56567;SDS011;42456;49.956;20.004;2024-03-25T04:48:04;5.30;;;3.10;;
56567;SDS011;42456;49.956;20.004;2024-03-25T04:50:32;5.40;;;3.10;;
56567;SDS011;42456;49.956;20.004;2024-03-25T04:52:58;4.30;;;2.90;;
56567;SDS011;42456;49.956;20.004;2024-03-25T04:55:25;3.00;;;2.50;;
56567;SDS011;42456;49.956;20.004;2024-03-25T04:57:52;3.80;;;2.30;;
56567;SDS011;42456;49.956;20.004;2024-03-25T05:00:19;3.60;;;2.50;;
56567;SDS011;42456;49.956;20.004;2024-03-25T05:02:46;4.10;;;2.30;;
56567;SDS011;42456;49.956;20.004;2024-03-25T05:05:12;4.90;;;2.80;;
56567;SDS011;42456;49.956;20.004;2024-03-25T05:07:39;4.60;;;2.60;;
56567;SDS011;42456;49.956;20.004;2024-03-25T05:10:06;4.20;;;2.70;;
56567;SDS011;42456;49.956;20.004;2024-03-25T05:12:34;4.00;;;2.50;;
56567;SDS011;42456;49.956;20.004;2024-03-25T05:15:00;4.30;;;2.70;;
56567;SDS011;42456;49.956;20.004;2024-03-25T05:17:27;4.40;;;2.50;;
56567;SDS011;42456;49.956;20.004;2024-03-25T05:19:54;4.80;;;2.50;;
56567;SDS011;42456;49.956;20.004;2024-03-25T05:22:21;5.20;;;2.50;;
56567;SDS011;42456;49.956;20.004;2024-03-25T05:24:48;4.30;;;2.70;;
56567;SDS011;42456;49.956;20.004;2024-03-25T05:27:15;4.90;;;2.60;;
56567;SDS011;42456;49.956;20.004;2024-03-25T05:29:41;4.60;;;2.80;;
56567;SDS011;42456;49.956;20.004;2024-03-25T05:32:08;4.60;;;2.80;;
56567;SDS011;42456;49.956;20.004;2024-03-25T05:34:35;7.00;;;4.40;;
56567;SDS011;42456;49.956;20.004;2024-03-25T05:37:02;7.40;;;4.10;;
56567;SDS011;42456;49.956;20.004;2024-03-25T05:39:29;6.70;;;3.10;;
56567;SDS011;42456;49.956;20.004;2024-03-25T05:41:56;6.00;;;2.90;;
56567;SDS011;42456;49.956;20.004;2024-03-25T05:44:23;8.10;;;3.40;;
56567;SDS011;42456;49.956;20.004;2024-03-25T05:46:49;5.50;;;3.10;;
56567;SDS011;42456;49.956;20.004;2024-03-25T05:49:16;4.70;;;2.80;;
56567;SDS011;42456;49.956;20.004;2024-03-25T05:51:43;5.80;;;3.20;;
56567;SDS011;42456;49.956;20.004;2024-03-25T05:54:10;5.10;;;2.90;;
56567;SDS011;42456;49.956;20.004;2024-03-25T05:56:37;5.70;;;2.80;;
56567;SDS011;42456;49.956;20.004;2024-03-25T05:59:03;4.30;;;2.70;;
56567;SDS011;42456;49.956;20.004;2024-03-25T06:01:30;5.60;;;3.10;;
56567;SDS011;42456;49.956;20.004;2024-03-25T06:03:57;5.00;;;2.80;;
56567;SDS011;42456;49.956;20.004;2024-03-25T06:06:24;5.20;;;2.90;;
56567;SDS011;42456;49.956;20.004;2024-03-25T06:08:51;6.90;;;3.30;;
56567;SDS011;42456;49.956;20.004;2024-03-25T06:11:18;4.70;;;3.00;;
56567;SDS011;42456;49.956;20.004;2024-03-25T06:13:47;4.70;;;2.30;;
56567;SDS011;42456;49.956;20.004;2024-03-25T06:16:14;5.90;;;3.00;;
56567;SDS011;42456;49.956;20.004;2024-03-25T06:18:41;6.80;;;3.00;;
56567;SDS011;42456;49.956;20.004;2024-03-25T06:21:08;3.70;;;2.50;;
56567;SDS011;42456;49.956;20.004;2024-03-25T06:23:34;3.90;;;2.60;;
56567;SDS011;42456;49.956;20.004;2024-03-25T06:26:02;3.50;;;2.40;;
56567;SDS011;42456;49.956;20.004;2024-03-25T06:28:28;3.80;;;2.40;;
56567;SDS011;42456;49.956;20.004;2024-03-25T06:30:55;3.70;;;2.40;;
56567;SDS011;42456;49.956;20.004;2024-03-25T06:33:36;4.00;;;2.60;;
56567;SDS011;42456;49.956;20.004;2024-03-25T06:36:17;3.60;;;2.20;;
56567;SDS011;42456;49.956;20.004;2024-03-25T06:38:45;3.70;;;2.50;;
56567;SDS011;42456;49.956;20.004;2024-03-25T06:41:12;3.10;;;2.00;;
56567;SDS011;42456;49.956;20.004;2024-03-25T06:43:39;4.50;;;2.20;;
56567;SDS011;42456;49.956;20.004;2024-03-25T06:46:06;2.30;;;2.00;;
56567;SDS011;42456;49.956;20.004;2024-03-25T06:48:33;3.60;;;2.00;;
56567;SDS011;42456;49.956;20.004;2024-03-25T06:51:03;2.70;;;1.70;;
56567;SDS011;42456;49.956;20.004;2024-03-25T06:53:30;2.60;;;2.00;;
56567;SDS011;42456;49.956;20.004;2024-03-25T06:56:00;1.70;;;1.50;;
56567;SDS011;42456;49.956;20.004;2024-03-25T06:58:30;2.30;;;1.60;;
56567;SDS011;42456;49.956;20.004;2024-03-25T07:01:03;2.20;;;1.60;;
56567;SDS011;42456;49.956;20.004;2024-03-25T07:03:31;4.00;;;1.80;;
56567;SDS011;42456;49.956;20.004;2024-03-25T07:05:58;2.20;;;2.00;;
56567;SDS011;42456;49.956;20.004;2024-03-25T07:08:26;3.00;;;1.90;;
56567;SDS011;42456;49.956;20.004;2024-03-25T07:10:54;2.00;;;1.70;;
56567;SDS011;42456;49.956;20.004;2024-03-25T07:13:21;1.60;;;1.30;;
56567;SDS011;42456;49.956;20.004;2024-03-25T07:15:49;2.60;;;1.80;;
56567;SDS011;42456;49.956;20.004;2024-03-25T07:18:18;3.50;;;2.10;;
56567;SDS011;42456;49.956;20.004;2024-03-25T07:20:45;2.20;;;2.00;;
56567;SDS011;42456;49.956;20.004;2024-03-25T07:23:12;2.50;;;1.80;;
56567;SDS011;42456;49.956;20.004;2024-03-25T07:25:39;2.70;;;1.70;;
56567;SDS011;42456;49.956;20.004;2024-03-25T07:28:06;2.50;;;2.10;;
56567;SDS011;42456;49.956;20.004;2024-03-25T07:30:34;2.60;;;2.00;;
56567;SDS011;42456;49.956;20.004;2024-03-25T07:33:01;4.00;;;2.30;;
56567;SDS011;42456;49.956;20.004;2024-03-25T07:35:28;2.70;;;2.00;;
56567;SDS011;42456;49.956;20.004;2024-03-25T07:37:55;3.40;;;2.10;;
56567;SDS011;42456;49.956;20.004;2024-03-25T07:40:21;2.90;;;1.90;;
56567;SDS011;42456;49.956;20.004;2024-03-25T07:42:48;3.00;;;1.90;;
56567;SDS011;42456;49.956;20.004;2024-03-25T07:45:15;2.40;;;1.90;;
56567;SDS011;42456;49.956;20.004;2024-03-25T07:47:43;3.50;;;2.10;;
56567;SDS011;42456;49.956;20.004;2024-03-25T07:50:09;2.20;;;2.00;;
56567;SDS011;42456;49.956;20.004;2024-03-25T07:52:36;1.80;;;1.60;;
56567;SDS011;42456;49.956;20.004;2024-03-25T07:57:34;2.20;;;1.70;;
56567;SDS011;42456;49.956;20.004;2024-03-25T08:00:01;1.80;;;1.60;;
56567;SDS011;42456;49.956;20.004;2024-03-25T08:02:31;3.60;;;2.70;;
56567;SDS011;42456;49.956;20.004;2024-03-25T08:04:58;4.60;;;2.10;;
56567;SDS011;42456;49.956;20.004;2024-03-25T08:07:25;2.40;;;1.80;;
56567;SDS011;42456;49.956;20.004;2024-03-25T08:09:52;3.20;;;2.10;;
56567;SDS011;42456;49.956;20.004;2024-03-25T08:12:18;3.70;;;2.10;;
56567;SDS011;42456;49.956;20.004;2024-03-25T08:14:45;2.80;;;2.10;;
56567;SDS011;42456;49.956;20.004;2024-03-25T08:17:12;2.90;;;2.20;;
56567;SDS011;42456;49.956;20.004;2024-03-25T08:19:39;3.20;;;2.00;;
56567;SDS011;42456;49.956;20.004;2024-03-25T08:22:06;2.30;;;2.10;;
56567;SDS011;42456;49.956;20.004;2024-03-25T08:24:33;3.50;;;2.20;;
56567;SDS011;42456;49.956;20.004;2024-03-25T08:27:00;3.60;;;2.30;;
56567;SDS011;42456;49.956;20.004;2024-03-25T08:29:27;5.20;;;2.20;;
56567;SDS011;42456;49.956;20.004;2024-03-25T08:31:54;3.70;;;2.20;;
56567;SDS011;42456;49.956;20.004;2024-03-25T08:34:21;3.90;;;2.10;;
56567;SDS011;42456;49.956;20.004;2024-03-25T08:36:48;2.30;;;1.90;;
56567;SDS011;42456;49.956;20.004;2024-03-25T08:39:15;2.50;;;2.10;;
56567;SDS011;42456;49.956;20.004;2024-03-25T08:41:42;2.70;;;2.00;;
56567;SDS011;42456;49.956;20.004;2024-03-25T08:44:09;3.90;;;2.70;;
56567;SDS011;42456;49.956;20.004;2024-03-25T08:46:37;3.30;;;2.00;;
56567;SDS011;42456;49.956;20.004;2024-03-25T08:49:04;3.40;;;2.70;;
56567;SDS011;42456;49.956;20.004;2024-03-25T08:51:31;2.70;;;2.30;;
56567;SDS011;42456;49.956;20.004;2024-03-25T08:53:58;2.20;;;1.90;;
56567;SDS011;42456;49.956;20.004;2024-03-25T08:56:25;2.30;;;1.90;;
56567;SDS011;42456;49.956;20.004;2024-03-25T08:58:52;1.70;;;1.60;;
56567;SDS011;42456;49.956;20.004;2024-03-25T09:01:21;1.50;;;1.40;;
56567;SDS011;42456;49.956;20.004;2024-03-25T09:03:51;2.30;;;1.90;;
56567;SDS011;42456;49.956;20.004;2024-03-25T09:08:47;1.90;;;1.70;;
56567;SDS011;42456;49.956;20.004;2024-03-25T09:11:28;1.90;;;1.70;;
56567;SDS011;42456;49.956;20.004;2024-03-25T09:13:56;2.20;;;1.70;;
56567;SDS011;42456;49.956;20.004;2024-03-25T09:16:23;3.20;;;2.10;;
56567;SDS011;42456;49.956;20.004;2024-03-25T09:18:50;2.70;;;2.00;;
56567;SDS011;42456;49.956;20.004;2024-03-25T09:21:17;3.50;;;1.80;;
56567;SDS011;42456;49.956;20.004;2024-03-25T09:23:44;3.70;;;2.10;;
56567;SDS011;42456;49.956;20.004;2024-03-25T09:26:10;3.80;;;2.40;;
56567;SDS011;42456;49.956;20.004;2024-03-25T09:28:37;2.40;;;2.10;;
56567;SDS011;42456;49.956;20.004;2024-03-25T09:31:04;3.50;;;2.10;;
56567;SDS011;42456;49.956;20.004;2024-03-25T09:33:32;7.50;;;3.20;;
56567;SDS011;42456;49.956;20.004;2024-03-25T09:35:59;8.00;;;3.20;;
56567;SDS011;42456;49.956;20.004;2024-03-25T09:38:26;7.30;;;3.90;;
56567;SDS011;42456;49.956;20.004;2024-03-25T09:40:53;9.90;;;4.30;;
56567;SDS011;42456;49.956;20.004;2024-03-25T09:43:32;6.40;;;3.30;;
56567;SDS011;42456;49.956;20.004;2024-03-25T09:46:05;4.70;;;3.00;;
56567;SDS011;42456;49.956;20.004;2024-03-25T09:48:32;6.00;;;2.90;;
56567;SDS011;42456;49.956;20.004;2024-03-25T09:51:00;5.50;;;2.70;;
56567;SDS011;42456;49.956;20.004;2024-03-25T09:53:29;4.10;;;2.90;;
56567;SDS011;42456;49.956;20.004;2024-03-25T09:55:56;2.40;;;1.90;;
56567;SDS011;42456;49.956;20.004;2024-03-25T09:58:24;2.50;;;2.10;;
56567;SDS011;42456;49.956;20.004;2024-03-25T10:00:52;4.20;;;2.40;;
56567;SDS011;42456;49.956;20.004;2024-03-25T10:03:19;2.50;;;2.00;;
56567;SDS011;42456;49.956;20.004;2024-03-25T10:05:46;3.80;;;2.50;;
56567;SDS011;42456;49.956;20.004;2024-03-25T10:08:13;2.30;;;2.10;;
56567;SDS011;42456;49.956;20.004;2024-03-25T10:10:46;3.20;;;2.30;;
56567;SDS011;42456;49.956;20.004;2024-03-25T10:13:13;3.80;;;2.20;;
56567;SDS011;42456;49.956;20.004;2024-03-25T10:15:40;3.00;;;2.10;;
56567;SDS011;42456;49.956;20.004;2024-03-25T10:18:07;3.20;;;2.40;;
56567;SDS011;42456;49.956;20.004;2024-03-25T10:20:34;3.00;;;2.10;;
56567;SDS011;42456;49.956;20.004;2024-03-25T10:23:01;4.10;;;2.10;;
56567;SDS011;42456;49.956;20.004;2024-03-25T10:25:30;2.50;;;2.20;;
56567;SDS011;42456;49.956;20.004;2024-03-25T10:27:58;3.50;;;2.30;;
56567;SDS011;42456;49.956;20.004;2024-03-25T10:30:27;2.90;;;2.50;;
56567;SDS011;42456;49.956;20.004;2024-03-25T10:33:07;3.80;;;2.70;;
56567;SDS011;42456;49.956;20.004;2024-03-25T10:35:34;3.30;;;2.50;;
56567;SDS011;42456;49.956;20.004;2024-03-25T10:38:04;3.30;;;2.20;;
56567;SDS011;42456;49.956;20.004;2024-03-25T10:40:32;3.80;;;2.80;;
56567;SDS011;42456;49.956;20.004;2024-03-25T10:43:01;3.20;;;2.60;;
56567;SDS011;42456;49.956;20.004;2024-03-25T10:45:33;3.60;;;2.80;;
56567;SDS011;42456;49.956;20.004;2024-03-25T10:50:37;7.20;;;3.90;;
56567;SDS011;42456;49.956;20.004;2024-03-25T10:53:06;3.80;;;3.00;;
56567;SDS011;42456;49.956;20.004;2024-03-25T10:55:34;4.60;;;2.80;;
56567;SDS011;42456;49.956;20.004;2024-03-25T10:58:04;3.70;;;2.80;;
56567;SDS011;42456;49.956;20.004;2024-03-25T11:00:33;3.40;;;2.60;;
56567;SDS011;42456;49.956;20.004;2024-03-25T11:03:02;4.00;;;2.70;;
56567;SDS011;42456;49.956;20.004;2024-03-25T11:05:29;4.40;;;2.80;;
56567;SDS011;42456;49.956;20.004;2024-03-25T11:07:56;5.20;;;3.10;;
56567;SDS011;42456;49.956;20.004;2024-03-25T11:10:28;4.40;;;3.10;;
56567;SDS011;42456;49.956;20.004;2024-03-25T11:12:56;3.80;;;2.60;;
56567;SDS011;42456;49.956;20.004;2024-03-25T11:15:23;5.40;;;2.80;;
56567;SDS011;42456;49.956;20.004;2024-03-25T11:17:50;5.10;;;2.50;;
56567;SDS011;42456;49.956;20.004;2024-03-25T11:20:17;3.60;;;2.60;;
56567;SDS011;42456;49.956;20.004;2024-03-25T11:22:48;2.70;;;2.30;;
56567;SDS011;42456;49.956;20.004;2024-03-25T11:25:16;2.90;;;2.30;;
56567;SDS011;42456;49.956;20.004;2024-03-25T11:27:44;5.60;;;2.90;;
56567;SDS011;42456;49.956;20.004;2024-03-25T11:30:11;6.30;;;3.80;;
56567;SDS011;42456;49.956;20.004;2024-03-25T11:32:46;4.20;;;2.70;;
56567;SDS011;42456;49.956;20.004;2024-03-25T11:35:13;2.20;;;1.90;;
56567;SDS011;42456;49.956;20.004;2024-03-25T11:37:41;2.00;;;1.80;;
56567;SDS011;42456;49.956;20.004;2024-03-25T11:40:09;2.20;;;1.50;;
56567;SDS011;42456;49.956;20.004;2024-03-25T11:42:38;2.20;;;1.80;;
56567;SDS011;42456;49.956;20.004;2024-03-25T11:45:15;1.70;;;1.20;;
56567;SDS011;42456;49.956;20.004;2024-03-25T11:47:44;1.60;;;1.20;;
56567;SDS011;42456;49.956;20.004;2024-03-25T11:50:12;2.60;;;1.70;;
56567;SDS011;42456;49.956;20.004;2024-03-25T11:52:41;2.30;;;1.50;;
56567;SDS011;42456;49.956;20.004;2024-03-25T11:55:08;3.10;;;2.10;;
56567;SDS011;42456;49.956;20.004;2024-03-25T11:57:36;3.70;;;2.10;;
56567;SDS011;42456;49.956;20.004;2024-03-25T12:00:04;3.80;;;2.10;;
56567;SDS011;42456;49.956;20.004;2024-03-25T12:02:32;3.40;;;2.30;;
56567;SDS011;42456;49.956;20.004;2024-03-25T12:05:01;2.00;;;1.80;;
56567;SDS011;42456;49.956;20.004;2024-03-25T12:07:28;2.30;;;1.90;;
56567;SDS011;42456;49.956;20.004;2024-03-25T12:09:55;2.90;;;2.10;;
56567;SDS011;42456;49.956;20.004;2024-03-25T12:12:36;3.70;;;2.30;;
56567;SDS011;42456;49.956;20.004;2024-03-25T12:17:33;4.20;;;2.50;;
56567;SDS011;42456;49.956;20.004;2024-03-25T12:22:27;4.00;;;2.50;;
56567;SDS011;42456;49.956;20.004;2024-03-25T12:24:57;5.40;;;2.80;;
56567;SDS011;42456;49.956;20.004;2024-03-25T12:27:25;6.20;;;3.60;;
56567;SDS011;42456;49.956;20.004;2024-03-25T12:30:04;5.70;;;3.70;;
56567;SDS011;42456;49.956;20.004;2024-03-25T12:32:39;3.80;;;2.70;;
56567;SDS011;42456;49.956;20.004;2024-03-25T12:35:11;4.90;;;3.30;;
56567;SDS011;42456;49.956;20.004;2024-03-25T12:37:39;3.40;;;2.60;;
56567;SDS011;42456;49.956;20.004;2024-03-25T12:40:07;4.60;;;2.90;;
56567;SDS011;42456;49.956;20.004;2024-03-25T12:45:06;3.80;;;2.50;;
56567;SDS011;42456;49.956;20.004;2024-03-25T12:47:33;4.50;;;2.90;;
56567;SDS011;42456;49.956;20.004;2024-03-25T12:50:00;5.80;;;2.50;;
56567;SDS011;42456;49.956;20.004;2024-03-25T12:52:27;4.40;;;2.90;;
56567;SDS011;42456;49.956;20.004;2024-03-25T12:54:54;5.10;;;2.90;;
56567;SDS011;42456;49.956;20.004;2024-03-25T12:57:21;4.80;;;3.10;;
56567;SDS011;42456;49.956;20.004;2024-03-25T12:59:48;5.10;;;2.90;;
56567;SDS011;42456;49.956;20.004;2024-03-25T13:02:15;4.10;;;3.00;;
56567;SDS011;42456;49.956;20.004;2024-03-25T13:04:42;3.00;;;2.20;;
56567;SDS011;42456;49.956;20.004;2024-03-25T13:07:09;2.80;;;2.30;;
56567;SDS011;42456;49.956;20.004;2024-03-25T13:09:36;2.50;;;1.70;;
56567;SDS011;42456;49.956;20.004;2024-03-25T13:12:04;1.70;;;1.60;;
56567;SDS011;42456;49.956;20.004;2024-03-25T13:14:31;1.30;;;1.20;;
56567;SDS011;42456;49.956;20.004;2024-03-25T13:17:00;1.70;;;1.20;;
56567;SDS011;42456;49.956;20.004;2024-03-25T13:19:27;1.50;;;1.40;;
56567;SDS011;42456;49.956;20.004;2024-03-25T13:21:57;2.00;;;1.70;;
56567;SDS011;42456;49.956;20.004;2024-03-25T13:26:51;3.90;;;2.30;;
56567;SDS011;42456;49.956;20.004;2024-03-25T13:29:19;3.60;;;2.40;;
56567;SDS011;42456;49.956;20.004;2024-03-25T13:31:46;2.40;;;2.20;;
56567;SDS011;42456;49.956;20.004;2024-03-25T13:34:16;2.30;;;2.10;;
56567;SDS011;42456;49.956;20.004;2024-03-25T13:36:43;2.80;;;2.00;;
56567;SDS011;42456;49.956;20.004;2024-03-25T13:39:10;3.10;;;2.30;;
56567;SDS011;42456;49.956;20.004;2024-03-25T13:41:36;2.80;;;2.00;;
56567;SDS011;42456;49.956;20.004;2024-03-25T13:44:04;2.30;;;1.90;;
56567;SDS011;42456;49.956;20.004;2024-03-25T13:46:31;1.70;;;1.60;;
56567;SDS011;42456;49.956;20.004;2024-03-25T13:48:58;2.60;;;2.20;;
56567;SDS011;42456;49.956;20.004;2024-03-25T13:51:25;2.10;;;1.90;;
56567;SDS011;42456;49.956;20.004;2024-03-25T13:53:52;2.10;;;1.90;;
56567;SDS011;42456;49.956;20.004;2024-03-25T13:56:19;3.20;;;1.90;;
56567;SDS011;42456;49.956;20.004;2024-03-25T13:58:46;2.70;;;2.10;;
56567;SDS011;42456;49.956;20.004;2024-03-25T14:01:13;3.80;;;2.00;;
56567;SDS011;42456;49.956;20.004;2024-03-25T14:03:41;3.60;;;2.40;;
56567;SDS011;42456;49.956;20.004;2024-03-25T14:06:09;3.40;;;2.20;;
56567;SDS011;42456;49.956;20.004;2024-03-25T14:08:35;2.30;;;2.10;;
56567;SDS011;42456;49.956;20.004;2024-03-25T14:11:02;2.80;;;2.00;;
56567;SDS011;42456;49.956;20.004;2024-03-25T14:13:30;3.00;;;2.10;;
56567;SDS011;42456;49.956;20.004;2024-03-25T14:15:57;3.40;;;2.10;;
56567;SDS011;42456;49.956;20.004;2024-03-25T14:18:24;3.20;;;2.00;;
56567;SDS011;42456;49.956;20.004;2024-03-25T14:20:51;2.20;;;1.50;;
56567;SDS011;42456;49.956;20.004;2024-03-25T14:23:18;2.80;;;1.90;;
56567;SDS011;42456;49.956;20.004;2024-03-25T14:25:45;4.20;;;2.40;;
56567;SDS011;42456;49.956;20.004;2024-03-25T14:28:12;4.90;;;2.50;;
56567;SDS011;42456;49.956;20.004;2024-03-25T14:30:39;4.60;;;2.70;;
56567;SDS011;42456;49.956;20.004;2024-03-25T14:33:06;4.30;;;2.70;;
56567;SDS011;42456;49.956;20.004;2024-03-25T14:35:34;6.10;;;3.10;;
56567;SDS011;42456;49.956;20.004;2024-03-25T14:38:01;5.40;;;2.90;;
56567;SDS011;42456;49.956;20.004;2024-03-25T14:40:28;5.00;;;2.90;;
56567;SDS011;42456;49.956;20.004;2024-03-25T14:42:55;3.30;;;2.40;;
56567;SDS011;42456;49.956;20.004;2024-03-25T14:45:22;4.80;;;2.90;;
56567;SDS011;42456;49.956;20.004;2024-03-25T14:47:49;4.30;;;3.10;;
56567;SDS011;42456;49.956;20.004;2024-03-25T14:50:16;4.30;;;2.30;;
56567;SDS011;42456;49.956;20.004;2024-03-25T14:52:43;5.00;;;2.80;;